sensor_id;sensor_type;location;lat;lon;timestamp;P1;durP1;ratioP1;P2;durP2;ratioP2
21170;SDS011;10743;52.160;20.910;2023-09-18T00:00:45;11.00;;;5.03;;
21170;SDS011;10743;52.160;20.910;2023-09-18T00:03:17;13.35;;;5.25;;
21170;SDS011;10743;52.160;20.910;2023-09-18T00:05:47;11.75;;;5.13;;
21170;SDS011;10743;52.160;20.910;2023-09-18T00:08:15;13.15;;;5.25;;
21170;SDS011;10743;52.160;20.910;2023-09-18T00:10:46;12.45;;;5.15;;
21170;SDS011;10743;52.160;20.910;2023-09-18T00:13:21;12.10;;;5.40;;
21170;SDS011;10743;52.160;20.910;2023-09-18T00:15:49;11.50;;;4.50;;
21170;SDS011;10743;52.160;20.910;2023-09-18T00:18:21;11.73;;;5.40;;
21170;SDS011;10743;52.160;20.910;2023-09-18T00:20:48;10.93;;;5.50;;
21170;SDS011;10743;52.160;20.910;2023-09-18T00:23:18;9.32;;;5.07;;
21170;SDS011;10743;52.160;20.910;2023-09-18T00:25:45;12.73;;;5.28;;
21170;SDS011;10743;52.160;20.910;2023-09-18T00:28:12;15.73;;;6.20;;
21170;SDS011;10743;52.160;20.910;2023-09-18T00:30:42;13.40;;;5.70;;
21170;SDS011;10743;52.160;20.910;2023-09-18T00:33:14;14.75;;;5.80;;
21170;SDS011;10743;52.160;20.910;2023-09-18T00:35:46;12.18;;;5.40;;
21170;SDS011;10743;52.160;20.910;2023-09-18T00:38:15;14.23;;;5.68;;
21170;SDS011;10743;52.160;20.910;2023-09-18T00:40:43;10.80;;;5.65;;
21170;SDS011;10743;52.160;20.910;2023-09-18T00:43:10;17.48;;;6.03;;
21170;SDS011;10743;52.160;20.910;2023-09-18T00:45:44;14.43;;;5.85;;
21170;SDS011;10743;52.160;20.910;2023-09-18T00:48:14;16.38;;;6.03;;
21170;SDS011;10743;52.160;20.910;2023-09-18T00:50:43;8.38;;;5.53;;
21170;SDS011;10743;52.160;20.910;2023-09-18T00:53:19;18.35;;;5.93;;
21170;SDS011;10743;52.160;20.910;2023-09-18T00:55:49;13.00;;;6.10;;
21170;SDS011;10743;52.160;20.910;2023-09-18T00:58:20;14.15;;;6.15;;
21170;SDS011;10743;52.160;20.910;2023-09-18T01:00:49;10.68;;;5.60;;
21170;SDS011;10743;52.160;20.910;2023-09-18T01:03:21;13.15;;;5.63;;
21170;SDS011;10743;52.160;20.910;2023-09-18T01:05:49;12.82;;;5.95;;
21170;SDS011;10743;52.160;20.910;2023-09-18T01:08:16;14.23;;;6.22;;
21170;SDS011;10743;52.160;20.910;2023-09-18T01:10:56;15.85;;;5.95;;
21170;SDS011;10743;52.160;20.910;2023-09-18T01:13:42;17.33;;;5.75;;
21170;SDS011;10743;52.160;20.910;2023-09-18T01:16:32;15.43;;;5.88;;
21170;SDS011;10743;52.160;20.910;2023-09-18T01:19:07;15.88;;;6.38;;
21170;SDS011;10743;52.160;20.910;2023-09-18T01:21:35;17.40;;;6.80;;
21170;SDS011;10743;52.160;20.910;2023-09-18T01:24:02;13.93;;;6.05;;
21170;SDS011;10743;52.160;20.910;2023-09-18T01:26:29;12.80;;;5.53;;
21170;SDS011;10743;52.160;20.910;2023-09-18T01:28:56;12.68;;;5.90;;
21170;SDS011;10743;52.160;20.910;2023-09-18T01:31:24;14.23;;;6.55;;
21170;SDS011;10743;52.160;20.910;2023-09-18T01:33:53;17.63;;;6.68;;
21170;SDS011;10743;52.160;20.910;2023-09-18T01:36:20;13.07;;;6.55;;
21170;SDS011;10743;52.160;20.910;2023-09-18T01:38:48;15.65;;;6.22;;
21170;SDS011;10743;52.160;20.910;2023-09-18T01:41:17;11.82;;;6.20;;
21170;SDS011;10743;52.160;20.910;2023-09-18T01:43:45;16.98;;;5.78;;
21170;SDS011;10743;52.160;20.910;2023-09-18T01:46:12;15.38;;;6.45;;
21170;SDS011;10743;52.160;20.910;2023-09-18T01:48:45;18.13;;;6.32;;
21170;SDS011;10743;52.160;20.910;2023-09-18T01:51:14;15.77;;;6.78;;
21170;SDS011;10743;52.160;20.910;2023-09-18T01:53:43;15.27;;;6.72;;
21170;SDS011;10743;52.160;20.910;2023-09-18T01:56:10;13.23;;;6.65;;
21170;SDS011;10743;52.160;20.910;2023-09-18T01:58:37;14.63;;;6.50;;
21170;SDS011;10743;52.160;20.910;2023-09-18T02:01:05;13.27;;;6.53;;
21170;SDS011;10743;52.160;20.910;2023-09-18T02:03:33;15.65;;;6.95;;
21170;SDS011;10743;52.160;20.910;2023-09-18T02:06:19;15.05;;;7.30;;
21170;SDS011;10743;52.160;20.910;2023-09-18T02:08:47;13.60;;;6.32;;
21170;SDS011;10743;52.160;20.910;2023-09-18T02:11:14;15.65;;;7.28;;
21170;SDS011;10743;52.160;20.910;2023-09-18T02:13:41;17.95;;;6.97;;
21170;SDS011;10743;52.160;20.910;2023-09-18T02:16:08;16.38;;;6.88;;
21170;SDS011;10743;52.160;20.910;2023-09-18T02:18:36;17.95;;;7.30;;
21170;SDS011;10743;52.160;20.910;2023-09-18T02:21:03;15.68;;;7.40;;
21170;SDS011;10743;52.160;20.910;2023-09-18T02:23:30;14.23;;;7.00;;
21170;SDS011;10743;52.160;20.910;2023-09-18T02:25:57;16.65;;;7.15;;
21170;SDS011;10743;52.160;20.910;2023-09-18T02:28:25;13.38;;;6.90;;
21170;SDS011;10743;52.160;20.910;2023-09-18T02:30:52;16.35;;;7.10;;
21170;SDS011;10743;52.160;20.910;2023-09-18T02:33:19;14.23;;;6.60;;
21170;SDS011;10743;52.160;20.910;2023-09-18T02:35:46;13.73;;;6.60;;
21170;SDS011;10743;52.160;20.910;2023-09-18T02:38:14;16.48;;;6.95;;
21170;SDS011;10743;52.160;20.910;2023-09-18T02:40:41;14.50;;;7.20;;
21170;SDS011;10743;52.160;20.910;2023-09-18T02:43:08;15.13;;;7.10;;
21170;SDS011;10743;52.160;20.910;2023-09-18T02:45:35;15.52;;;6.75;;
21170;SDS011;10743;52.160;20.910;2023-09-18T02:48:02;17.80;;;6.85;;
21170;SDS011;10743;52.160;20.910;2023-09-18T02:50:30;14.50;;;7.38;;
21170;SDS011;10743;52.160;20.910;2023-09-18T02:52:57;13.18;;;7.15;;
21170;SDS011;10743;52.160;20.910;2023-09-18T02:55:26;14.07;;;7.13;;
21170;SDS011;10743;52.160;20.910;2023-09-18T02:57:53;15.40;;;7.75;;
21170;SDS011;10743;52.160;20.910;2023-09-18T03:00:20;15.32;;;7.28;;
21170;SDS011;10743;52.160;20.910;2023-09-18T03:03:07;13.60;;;6.93;;
21170;SDS011;10743;52.160;20.910;2023-09-18T03:05:35;15.02;;;7.38;;
21170;SDS011;10743;52.160;20.910;2023-09-18T03:08:03;14.68;;;7.20;;
21170;SDS011;10743;52.160;20.910;2023-09-18T03:10:34;16.38;;;7.28;;
21170;SDS011;10743;52.160;20.910;2023-09-18T03:13:03;16.00;;;7.22;;
21170;SDS011;10743;52.160;20.910;2023-09-18T03:15:31;19.45;;;7.80;;
21170;SDS011;10743;52.160;20.910;2023-09-18T03:17:59;15.73;;;7.60;;
21170;SDS011;10743;52.160;20.910;2023-09-18T03:20:28;20.63;;;8.88;;
21170;SDS011;10743;52.160;20.910;2023-09-18T03:23:00;17.63;;;7.78;;
21170;SDS011;10743;52.160;20.910;2023-09-18T03:25:28;16.67;;;7.47;;
21170;SDS011;10743;52.160;20.910;2023-09-18T03:28:14;11.77;;;7.32;;
21170;SDS011;10743;52.160;20.910;2023-09-18T03:30:41;13.05;;;7.47;;
21170;SDS011;10743;52.160;20.910;2023-09-18T03:33:09;14.75;;;7.63;;
21170;SDS011;10743;52.160;20.910;2023-09-18T03:35:46;17.42;;;7.38;;
21170;SDS011;10743;52.160;20.910;2023-09-18T03:38:19;14.27;;;7.20;;
21170;SDS011;10743;52.160;20.910;2023-09-18T03:40:47;17.55;;;8.10;;
21170;SDS011;10743;52.160;20.910;2023-09-18T03:43:15;14.75;;;7.45;;
21170;SDS011;10743;52.160;20.910;2023-09-18T03:45:42;13.20;;;7.32;;
21170;SDS011;10743;52.160;20.910;2023-09-18T03:48:10;18.90;;;7.75;;
21170;SDS011;10743;52.160;20.910;2023-09-18T03:50:37;14.77;;;7.85;;
21170;SDS011;10743;52.160;20.910;2023-09-18T03:53:06;15.30;;;7.88;;
21170;SDS011;10743;52.160;20.910;2023-09-18T03:55:34;18.67;;;8.20;;
21170;SDS011;10743;52.160;20.910;2023-09-18T03:58:01;20.70;;;8.02;;
21170;SDS011;10743;52.160;20.910;2023-09-18T04:00:29;18.63;;;8.07;;
21170;SDS011;10743;52.160;20.910;2023-09-18T04:02:56;17.63;;;8.27;;
21170;SDS011;10743;52.160;20.910;2023-09-18T04:05:26;17.63;;;8.57;;
21170;SDS011;10743;52.160;20.910;2023-09-18T04:07:55;14.68;;;7.85;;
21170;SDS011;10743;52.160;20.910;2023-09-18T04:10:22;15.15;;;8.82;;
21170;SDS011;10743;52.160;20.910;2023-09-18T04:12:51;19.63;;;8.30;;
21170;SDS011;10743;52.160;20.910;2023-09-18T04:15:18;15.48;;;8.63;;
21170;SDS011;10743;52.160;20.910;2023-09-18T04:17:47;14.02;;;8.13;;
21170;SDS011;10743;52.160;20.910;2023-09-18T04:20:14;15.82;;;8.23;;
21170;SDS011;10743;52.160;20.910;2023-09-18T04:22:43;15.10;;;8.40;;
21170;SDS011;10743;52.160;20.910;2023-09-18T04:25:16;18.15;;;8.48;;
21170;SDS011;10743;52.160;20.910;2023-09-18T04:27:46;18.38;;;8.98;;
21170;SDS011;10743;52.160;20.910;2023-09-18T04:30:16;17.60;;;8.25;;
21170;SDS011;10743;52.160;20.910;2023-09-18T04:32:46;19.30;;;8.70;;
21170;SDS011;10743;52.160;20.910;2023-09-18T04:35:14;17.83;;;8.32;;
21170;SDS011;10743;52.160;20.910;2023-09-18T04:37:42;21.25;;;9.23;;
21170;SDS011;10743;52.160;20.910;2023-09-18T04:40:09;18.40;;;8.75;;
21170;SDS011;10743;52.160;20.910;2023-09-18T04:42:39;19.20;;;8.18;;
21170;SDS011;10743;52.160;20.910;2023-09-18T04:45:07;17.33;;;8.18;;
21170;SDS011;10743;52.160;20.910;2023-09-18T04:47:35;17.25;;;8.75;;
21170;SDS011;10743;52.160;20.910;2023-09-18T04:50:03;16.08;;;7.85;;
21170;SDS011;10743;52.160;20.910;2023-09-18T04:52:37;18.75;;;8.63;;
21170;SDS011;10743;52.160;20.910;2023-09-18T04:55:05;16.10;;;8.60;;
21170;SDS011;10743;52.160;20.910;2023-09-18T04:57:33;16.48;;;8.38;;
21170;SDS011;10743;52.160;20.910;2023-09-18T05:00:00;18.45;;;8.57;;
21170;SDS011;10743;52.160;20.910;2023-09-18T05:02:42;16.30;;;8.45;;
21170;SDS011;10743;52.160;20.910;2023-09-18T05:05:11;18.42;;;8.80;;
21170;SDS011;10743;52.160;20.910;2023-09-18T05:07:38;20.92;;;8.88;;
21170;SDS011;10743;52.160;20.910;2023-09-18T05:10:06;17.63;;;8.55;;
21170;SDS011;10743;52.160;20.910;2023-09-18T05:12:33;17.75;;;8.88;;
21170;SDS011;10743;52.160;20.910;2023-09-18T05:15:00;22.45;;;8.93;;
21170;SDS011;10743;52.160;20.910;2023-09-18T05:17:44;19.05;;;9.32;;
21170;SDS011;10743;52.160;20.910;2023-09-18T05:20:15;18.33;;;8.55;;
21170;SDS011;10743;52.160;20.910;2023-09-18T05:22:44;16.90;;;8.50;;
21170;SDS011;10743;52.160;20.910;2023-09-18T05:25:12;22.10;;;9.32;;
21170;SDS011;10743;52.160;20.910;2023-09-18T05:27:42;21.88;;;8.93;;
21170;SDS011;10743;52.160;20.910;2023-09-18T05:30:18;21.10;;;9.20;;
21170;SDS011;10743;52.160;20.910;2023-09-18T05:32:48;15.88;;;9.32;;
21170;SDS011;10743;52.160;20.910;2023-09-18T05:35:15;20.88;;;9.27;;
21170;SDS011;10743;52.160;20.910;2023-09-18T05:37:44;20.23;;;9.43;;
21170;SDS011;10743;52.160;20.910;2023-09-18T05:40:11;19.40;;;8.98;;
21170;SDS011;10743;52.160;20.910;2023-09-18T05:42:40;17.25;;;8.88;;
21170;SDS011;10743;52.160;20.910;2023-09-18T05:45:12;23.40;;;9.40;;
21170;SDS011;10743;52.160;20.910;2023-09-18T05:47:41;18.25;;;8.32;;
21170;SDS011;10743;52.160;20.910;2023-09-18T05:50:10;21.63;;;9.43;;
21170;SDS011;10743;52.160;20.910;2023-09-18T05:52:44;16.95;;;8.70;;
21170;SDS011;10743;52.160;20.910;2023-09-18T05:55:14;21.50;;;9.52;;
21170;SDS011;10743;52.160;20.910;2023-09-18T05:57:41;18.17;;;9.27;;
21170;SDS011;10743;52.160;20.910;2023-09-18T06:00:09;21.50;;;10.48;;
21170;SDS011;10743;52.160;20.910;2023-09-18T06:02:40;17.92;;;9.90;;
21170;SDS011;10743;52.160;20.910;2023-09-18T06:05:08;21.85;;;9.57;;
21170;SDS011;10743;52.160;20.910;2023-09-18T06:07:38;21.10;;;9.55;;
21170;SDS011;10743;52.160;20.910;2023-09-18T06:10:05;20.80;;;10.18;;
21170;SDS011;10743;52.160;20.910;2023-09-18T06:12:33;19.35;;;9.27;;
21170;SDS011;10743;52.160;20.910;2023-09-18T06:15:00;17.67;;;9.27;;
21170;SDS011;10743;52.160;20.910;2023-09-18T06:17:27;18.95;;;9.63;;
21170;SDS011;10743;52.160;20.910;2023-09-18T06:19:55;19.13;;;9.90;;
21170;SDS011;10743;52.160;20.910;2023-09-18T06:22:22;19.33;;;9.55;;
21170;SDS011;10743;52.160;20.910;2023-09-18T06:24:49;19.88;;;8.93;;
21170;SDS011;10743;52.160;20.910;2023-09-18T06:27:16;19.20;;;9.93;;
21170;SDS011;10743;52.160;20.910;2023-09-18T06:29:45;20.15;;;8.77;;
21170;SDS011;10743;52.160;20.910;2023-09-18T06:32:12;19.58;;;8.65;;
21170;SDS011;10743;52.160;20.910;2023-09-18T06:34:39;18.08;;;9.55;;
21170;SDS011;10743;52.160;20.910;2023-09-18T06:37:10;19.70;;;10.00;;
21170;SDS011;10743;52.160;20.910;2023-09-18T06:39:39;17.58;;;9.25;;
21170;SDS011;10743;52.160;20.910;2023-09-18T06:42:07;16.73;;;9.13;;
21170;SDS011;10743;52.160;20.910;2023-09-18T06:44:35;17.17;;;9.43;;
21170;SDS011;10743;52.160;20.910;2023-09-18T06:47:03;16.83;;;9.10;;
21170;SDS011;10743;52.160;20.910;2023-09-18T06:49:30;22.40;;;9.60;;
21170;SDS011;10743;52.160;20.910;2023-09-18T06:51:57;17.95;;;8.93;;
21170;SDS011;10743;52.160;20.910;2023-09-18T06:54:24;19.45;;;8.98;;
21170;SDS011;10743;52.160;20.910;2023-09-18T06:56:51;23.88;;;9.63;;
21170;SDS011;10743;52.160;20.910;2023-09-18T06:59:19;24.63;;;10.25;;
21170;SDS011;10743;52.160;20.910;2023-09-18T07:01:46;25.65;;;9.77;;
21170;SDS011;10743;52.160;20.910;2023-09-18T07:04:13;26.38;;;9.75;;
21170;SDS011;10743;52.160;20.910;2023-09-18T07:06:40;21.52;;;9.23;;
21170;SDS011;10743;52.160;20.910;2023-09-18T07:09:07;20.38;;;9.05;;
21170;SDS011;10743;52.160;20.910;2023-09-18T07:11:38;24.15;;;9.73;;
21170;SDS011;10743;52.160;20.910;2023-09-18T07:14:05;23.90;;;9.38;;
21170;SDS011;10743;52.160;20.910;2023-09-18T07:16:34;27.08;;;9.57;;
21170;SDS011;10743;52.160;20.910;2023-09-18T07:19:01;23.58;;;10.13;;
21170;SDS011;10743;52.160;20.910;2023-09-18T07:21:31;22.48;;;9.82;;
21170;SDS011;10743;52.160;20.910;2023-09-18T07:23:58;23.50;;;9.85;;
21170;SDS011;10743;52.160;20.910;2023-09-18T07:26:26;23.00;;;9.43;;
21170;SDS011;10743;52.160;20.910;2023-09-18T07:28:53;23.35;;;8.93;;
21170;SDS011;10743;52.160;20.910;2023-09-18T07:31:20;25.20;;;9.73;;
21170;SDS011;10743;52.160;20.910;2023-09-18T07:33:47;16.75;;;8.98;;
21170;SDS011;10743;52.160;20.910;2023-09-18T07:36:15;24.17;;;10.00;;
21170;SDS011;10743;52.160;20.910;2023-09-18T07:38:42;25.90;;;9.68;;
21170;SDS011;10743;52.160;20.910;2023-09-18T07:41:09;23.75;;;10.07;;
21170;SDS011;10743;52.160;20.910;2023-09-18T07:43:37;24.42;;;10.05;;
21170;SDS011;10743;52.160;20.910;2023-09-18T07:46:06;112.47;;;17.67;;
21170;SDS011;10743;52.160;20.910;2023-09-18T07:48:33;21.27;;;9.25;;
21170;SDS011;10743;52.160;20.910;2023-09-18T07:51:01;28.90;;;10.00;;
21170;SDS011;10743;52.160;20.910;2023-09-18T07:53:28;22.10;;;9.60;;
21170;SDS011;10743;52.160;20.910;2023-09-18T07:55:56;32.92;;;10.48;;
21170;SDS011;10743;52.160;20.910;2023-09-18T07:58:25;33.10;;;11.05;;
21170;SDS011;10743;52.160;20.910;2023-09-18T08:00:57;24.10;;;10.00;;
21170;SDS011;10743;52.160;20.910;2023-09-18T08:03:25;22.67;;;9.70;;
21170;SDS011;10743;52.160;20.910;2023-09-18T08:05:53;26.80;;;9.93;;
21170;SDS011;10743;52.160;20.910;2023-09-18T08:08:21;27.23;;;10.00;;
21170;SDS011;10743;52.160;20.910;2023-09-18T08:10:50;20.90;;;10.02;;
21170;SDS011;10743;52.160;20.910;2023-09-18T08:13:18;21.83;;;9.43;;
21170;SDS011;10743;52.160;20.910;2023-09-18T08:15:46;20.50;;;9.32;;
21170;SDS011;10743;52.160;20.910;2023-09-18T08:18:13;19.80;;;9.10;;
21170;SDS011;10743;52.160;20.910;2023-09-18T08:20:41;25.15;;;9.50;;
21170;SDS011;10743;52.160;20.910;2023-09-18T08:23:10;23.85;;;9.20;;
21170;SDS011;10743;52.160;20.910;2023-09-18T08:25:37;16.08;;;8.45;;
21170;SDS011;10743;52.160;20.910;2023-09-18T08:28:07;20.35;;;9.18;;
21170;SDS011;10743;52.160;20.910;2023-09-18T08:30:35;21.65;;;9.68;;
21170;SDS011;10743;52.160;20.910;2023-09-18T08:33:06;18.45;;;8.90;;
21170;SDS011;10743;52.160;20.910;2023-09-18T08:35:33;21.08;;;9.32;;
21170;SDS011;10743;52.160;20.910;2023-09-18T08:38:00;19.95;;;8.85;;
21170;SDS011;10743;52.160;20.910;2023-09-18T08:40:27;19.20;;;8.93;;
21170;SDS011;10743;52.160;20.910;2023-09-18T08:42:55;19.23;;;8.80;;
21170;SDS011;10743;52.160;20.910;2023-09-18T08:45:25;21.00;;;9.70;;
21170;SDS011;10743;52.160;20.910;2023-09-18T08:48:01;19.60;;;8.65;;
21170;SDS011;10743;52.160;20.910;2023-09-18T08:50:29;20.70;;;8.70;;
21170;SDS011;10743;52.160;20.910;2023-09-18T08:52:57;21.30;;;9.25;;
21170;SDS011;10743;52.160;20.910;2023-09-18T08:55:25;20.75;;;9.70;;
21170;SDS011;10743;52.160;20.910;2023-09-18T08:57:52;19.90;;;9.18;;
21170;SDS011;10743;52.160;20.910;2023-09-18T09:00:20;20.70;;;8.50;;
21170;SDS011;10743;52.160;20.910;2023-09-18T09:02:47;18.00;;;8.20;;
21170;SDS011;10743;52.160;20.910;2023-09-18T09:05:19;18.77;;;8.18;;
21170;SDS011;10743;52.160;20.910;2023-09-18T09:07:50;17.98;;;8.52;;
21170;SDS011;10743;52.160;20.910;2023-09-18T09:10:17;11.98;;;7.13;;
21170;SDS011;10743;52.160;20.910;2023-09-18T09:12:49;12.75;;;7.22;;
21170;SDS011;10743;52.160;20.910;2023-09-18T09:15:23;14.63;;;7.80;;
21170;SDS011;10743;52.160;20.910;2023-09-18T09:18:03;13.45;;;7.22;;
21170;SDS011;10743;52.160;20.910;2023-09-18T09:20:33;12.93;;;7.72;;
21170;SDS011;10743;52.160;20.910;2023-09-18T09:23:03;15.20;;;7.78;;
21170;SDS011;10743;52.160;20.910;2023-09-18T09:25:33;12.52;;;7.50;;
21170;SDS011;10743;52.160;20.910;2023-09-18T09:28:01;13.80;;;7.80;;
21170;SDS011;10743;52.160;20.910;2023-09-18T09:30:32;13.07;;;7.72;;
21170;SDS011;10743;52.160;20.910;2023-09-18T09:33:03;12.77;;;7.53;;
21170;SDS011;10743;52.160;20.910;2023-09-18T09:35:33;13.32;;;7.28;;
21170;SDS011;10743;52.160;20.910;2023-09-18T09:38:08;11.88;;;7.15;;
21170;SDS011;10743;52.160;20.910;2023-09-18T09:40:38;13.85;;;7.25;;
21170;SDS011;10743;52.160;20.910;2023-09-18T09:43:10;10.82;;;6.60;;
21170;SDS011;10743;52.160;20.910;2023-09-18T09:45:42;14.18;;;6.72;;
21170;SDS011;10743;52.160;20.910;2023-09-18T09:48:12;11.85;;;6.68;;
21170;SDS011;10743;52.160;20.910;2023-09-18T09:50:46;8.20;;;5.25;;
21170;SDS011;10743;52.160;20.910;2023-09-18T09:53:15;11.27;;;6.25;;
21170;SDS011;10743;52.160;20.910;2023-09-18T09:55:43;10.18;;;5.28;;
21170;SDS011;10743;52.160;20.910;2023-09-18T09:58:11;7.60;;;5.55;;
21170;SDS011;10743;52.160;20.910;2023-09-18T10:00:49;9.80;;;5.82;;
21170;SDS011;10743;52.160;20.910;2023-09-18T10:03:21;9.35;;;5.50;;
21170;SDS011;10743;52.160;20.910;2023-09-18T10:05:50;11.50;;;5.72;;
21170;SDS011;10743;52.160;20.910;2023-09-18T10:08:25;10.00;;;6.10;;
21170;SDS011;10743;52.160;20.910;2023-09-18T10:10:55;11.02;;;6.13;;
21170;SDS011;10743;52.160;20.910;2023-09-18T10:13:47;8.25;;;5.28;;
21170;SDS011;10743;52.160;20.910;2023-09-18T10:16:16;8.40;;;5.43;;
21170;SDS011;10743;52.160;20.910;2023-09-18T10:25:12;9.18;;;4.88;;
21170;SDS011;10743;52.160;20.910;2023-09-18T10:27:45;10.85;;;5.43;;
21170;SDS011;10743;52.160;20.910;2023-09-18T10:30:16;10.05;;;5.45;;
21170;SDS011;10743;52.160;20.910;2023-09-18T10:32:46;8.93;;;5.10;;
21170;SDS011;10743;52.160;20.910;2023-09-18T10:35:15;10.23;;;5.47;;
21170;SDS011;10743;52.160;20.910;2023-09-18T10:37:42;10.35;;;5.60;;
21170;SDS011;10743;52.160;20.910;2023-09-18T10:40:10;11.63;;;5.22;;
21170;SDS011;10743;52.160;20.910;2023-09-18T10:42:39;9.18;;;5.18;;
21170;SDS011;10743;52.160;20.910;2023-09-18T10:45:08;10.13;;;5.75;;
21170;SDS011;10743;52.160;20.910;2023-09-18T10:47:38;8.25;;;5.20;;
21170;SDS011;10743;52.160;20.910;2023-09-18T10:50:22;10.10;;;5.47;;
21170;SDS011;10743;52.160;20.910;2023-09-18T10:52:51;9.52;;;5.40;;
21170;SDS011;10743;52.160;20.910;2023-09-18T10:55:19;8.52;;;4.57;;
21170;SDS011;10743;52.160;20.910;2023-09-18T10:57:55;8.48;;;5.13;;
21170;SDS011;10743;52.160;20.910;2023-09-18T11:00:25;9.10;;;5.13;;
21170;SDS011;10743;52.160;20.910;2023-09-18T11:03:08;14.55;;;5.38;;
21170;SDS011;10743;52.160;20.910;2023-09-18T11:05:44;18.63;;;5.95;;
21170;SDS011;10743;52.160;20.910;2023-09-18T11:08:34;16.08;;;5.60;;
21170;SDS011;10743;52.160;20.910;2023-09-18T11:11:03;14.05;;;5.95;;
21170;SDS011;10743;52.160;20.910;2023-09-18T11:19:05;13.95;;;5.88;;
21170;SDS011;10743;52.160;20.910;2023-09-18T11:21:38;16.90;;;5.82;;
21170;SDS011;10743;52.160;20.910;2023-09-18T11:24:21;15.30;;;6.18;;
21170;SDS011;10743;52.160;20.910;2023-09-18T11:26:49;15.23;;;5.95;;
21170;SDS011;10743;52.160;20.910;2023-09-18T11:29:22;15.25;;;6.25;;
21170;SDS011;10743;52.160;20.910;2023-09-18T11:31:51;13.77;;;6.20;;
21170;SDS011;10743;52.160;20.910;2023-09-18T11:34:27;15.68;;;6.22;;
21170;SDS011;10743;52.160;20.910;2023-09-18T11:36:57;16.65;;;6.60;;
21170;SDS011;10743;52.160;20.910;2023-09-18T11:39:38;16.02;;;6.40;;
21170;SDS011;10743;52.160;20.910;2023-09-18T11:44:36;19.35;;;7.10;;
21170;SDS011;10743;52.160;20.910;2023-09-18T11:47:09;14.60;;;6.78;;
21170;SDS011;10743;52.160;20.910;2023-09-18T11:49:49;16.13;;;6.80;;
21170;SDS011;10743;52.160;20.910;2023-09-18T11:52:22;16.55;;;7.63;;
21170;SDS011;10743;52.160;20.910;2023-09-18T11:54:52;15.70;;;7.40;;
21170;SDS011;10743;52.160;20.910;2023-09-18T11:57:21;18.50;;;7.53;;
21170;SDS011;10743;52.160;20.910;2023-09-18T11:59:48;22.42;;;7.80;;
21170;SDS011;10743;52.160;20.910;2023-09-18T12:02:29;20.63;;;7.82;;
21170;SDS011;10743;52.160;20.910;2023-09-18T12:05:15;14.80;;;7.15;;
21170;SDS011;10743;52.160;20.910;2023-09-18T12:07:45;12.88;;;7.25;;
21170;SDS011;10743;52.160;20.910;2023-09-18T12:10:14;16.10;;;7.00;;
21170;SDS011;10743;52.160;20.910;2023-09-18T12:12:43;16.30;;;7.85;;
21170;SDS011;10743;52.160;20.910;2023-09-18T12:15:11;16.88;;;8.02;;
21170;SDS011;10743;52.160;20.910;2023-09-18T12:17:44;16.00;;;7.85;;
21170;SDS011;10743;52.160;20.910;2023-09-18T12:20:16;17.52;;;7.72;;
21170;SDS011;10743;52.160;20.910;2023-09-18T12:22:48;14.95;;;7.75;;
21170;SDS011;10743;52.160;20.910;2023-09-18T12:25:20;17.38;;;7.85;;
21170;SDS011;10743;52.160;20.910;2023-09-18T12:27:52;15.38;;;7.57;;
21170;SDS011;10743;52.160;20.910;2023-09-18T12:30:20;12.95;;;7.03;;
21170;SDS011;10743;52.160;20.910;2023-09-18T12:32:50;18.40;;;7.78;;
21170;SDS011;10743;52.160;20.910;2023-09-18T12:35:18;17.35;;;7.15;;
21170;SDS011;10743;52.160;20.910;2023-09-18T12:37:45;16.90;;;7.65;;
21170;SDS011;10743;52.160;20.910;2023-09-18T12:42:49;16.63;;;7.82;;
21170;SDS011;10743;52.160;20.910;2023-09-18T12:45:17;16.42;;;7.78;;
21170;SDS011;10743;52.160;20.910;2023-09-18T12:47:45;19.38;;;8.18;;
21170;SDS011;10743;52.160;20.910;2023-09-18T12:50:13;15.93;;;8.20;;
21170;SDS011;10743;52.160;20.910;2023-09-18T12:52:40;17.58;;;8.75;;
21170;SDS011;10743;52.160;20.910;2023-09-18T12:55:08;15.40;;;7.85;;
21170;SDS011;10743;52.160;20.910;2023-09-18T12:57:47;15.93;;;7.68;;
21170;SDS011;10743;52.160;20.910;2023-09-18T13:00:17;16.38;;;7.68;;
21170;SDS011;10743;52.160;20.910;2023-09-18T13:02:48;23.73;;;8.95;;
21170;SDS011;10743;52.160;20.910;2023-09-18T13:05:23;20.48;;;7.95;;
21170;SDS011;10743;52.160;20.910;2023-09-18T13:08:03;20.05;;;8.20;;
21170;SDS011;10743;52.160;20.910;2023-09-18T13:10:44;15.63;;;7.63;;
21170;SDS011;10743;52.160;20.910;2023-09-18T13:13:20;16.58;;;7.85;;
21170;SDS011;10743;52.160;20.910;2023-09-18T13:15:48;19.55;;;8.30;;
21170;SDS011;10743;52.160;20.910;2023-09-18T13:18:20;13.98;;;7.45;;
21170;SDS011;10743;52.160;20.910;2023-09-18T13:20:50;77.72;;;15.05;;
21170;SDS011;10743;52.160;20.910;2023-09-18T13:23:18;16.55;;;8.07;;
21170;SDS011;10743;52.160;20.910;2023-09-18T13:25:48;19.05;;;8.00;;
21170;SDS011;10743;52.160;20.910;2023-09-18T13:28:15;16.55;;;7.82;;
21170;SDS011;10743;52.160;20.910;2023-09-18T13:30:44;17.02;;;8.38;;
21170;SDS011;10743;52.160;20.910;2023-09-18T13:33:12;17.98;;;8.13;;
21170;SDS011;10743;52.160;20.910;2023-09-18T13:35:44;18.98;;;8.45;;
21170;SDS011;10743;52.160;20.910;2023-09-18T13:38:12;18.42;;;8.13;;
21170;SDS011;10743;52.160;20.910;2023-09-18T13:40:41;20.83;;;8.13;;
21170;SDS011;10743;52.160;20.910;2023-09-18T13:43:09;17.83;;;8.02;;
21170;SDS011;10743;52.160;20.910;2023-09-18T13:45:36;22.20;;;8.45;;
21170;SDS011;10743;52.160;20.910;2023-09-18T13:48:04;20.45;;;9.07;;
21170;SDS011;10743;52.160;20.910;2023-09-18T13:50:33;17.60;;;8.63;;
21170;SDS011;10743;52.160;20.910;2023-09-18T13:53:01;19.92;;;8.45;;
21170;SDS011;10743;52.160;20.910;2023-09-18T13:55:33;18.75;;;9.07;;
21170;SDS011;10743;52.160;20.910;2023-09-18T13:58:01;14.32;;;7.70;;
21170;SDS011;10743;52.160;20.910;2023-09-18T14:00:32;18.95;;;8.45;;
21170;SDS011;10743;52.160;20.910;2023-09-18T14:02:59;20.85;;;9.05;;
21170;SDS011;10743;52.160;20.910;2023-09-18T14:05:27;15.43;;;8.50;;
21170;SDS011;10743;52.160;20.910;2023-09-18T14:07:56;18.73;;;8.88;;
21170;SDS011;10743;52.160;20.910;2023-09-18T14:10:26;18.73;;;9.15;;
21170;SDS011;10743;52.160;20.910;2023-09-18T14:12:54;23.77;;;8.93;;
21170;SDS011;10743;52.160;20.910;2023-09-18T14:15:21;17.65;;;8.23;;
21170;SDS011;10743;52.160;20.910;2023-09-18T14:17:49;20.13;;;8.38;;
21170;SDS011;10743;52.160;20.910;2023-09-18T14:20:16;20.10;;;7.85;;
21170;SDS011;10743;52.160;20.910;2023-09-18T14:22:46;19.25;;;8.60;;
21170;SDS011;10743;52.160;20.910;2023-09-18T14:25:16;16.77;;;8.05;;
21170;SDS011;10743;52.160;20.910;2023-09-18T14:27:46;20.17;;;8.23;;
21170;SDS011;10743;52.160;20.910;2023-09-18T14:30:13;17.42;;;7.82;;
21170;SDS011;10743;52.160;20.910;2023-09-18T14:32:40;17.10;;;8.57;;
21170;SDS011;10743;52.160;20.910;2023-09-18T14:35:08;16.20;;;7.65;;
21170;SDS011;10743;52.160;20.910;2023-09-18T14:37:36;18.90;;;8.43;;
21170;SDS011;10743;52.160;20.910;2023-09-18T14:40:04;17.45;;;8.23;;
21170;SDS011;10743;52.160;20.910;2023-09-18T14:42:32;21.13;;;7.78;;
21170;SDS011;10743;52.160;20.910;2023-09-18T14:45:00;17.85;;;8.25;;
21170;SDS011;10743;52.160;20.910;2023-09-18T14:47:28;16.77;;;7.35;;
21170;SDS011;10743;52.160;20.910;2023-09-18T14:49:56;16.50;;;7.25;;
21170;SDS011;10743;52.160;20.910;2023-09-18T14:52:25;11.27;;;6.63;;